sensor_id;sensor_type;location;lat;lon;timestamp;pressure;altitude;pressure_sealevel;temperature;humidity
45872;BME280;32333;55.844;-3.210;2022-07-10T00:01:49;100878.16;;;13.53;100.00
45872;BME280;32333;55.844;-3.210;2022-07-10T00:04:16;100878.46;;;12.46;100.00
45872;BME280;32333;55.844;-3.210;2022-07-10T00:06:45;100886.00;;;12.77;100.00
45872;BME280;32333;55.844;-3.210;2022-07-10T00:09:13;100889.37;;;12.36;100.00
45872;BME280;32333;55.844;-3.210;2022-07-10T00:11:41;100889.84;;;13.03;100.00
45872;BME280;32333;55.844;-3.210;2022-07-10T00:14:35;100890.38;;;12.72;100.00
45872;BME280;32333;55.844;-3.210;2022-07-10T00:17:03;100893.88;;;12.62;100.00
45872;BME280;32333;55.844;-3.210;2022-07-10T00:19:31;100895.44;;;12.42;100.00
45872;BME280;32333;55.844;-3.210;2022-07-10T00:21:59;100891.93;;;12.86;100.00
45872;BME280;32333;55.844;-3.210;2022-07-10T00:24:26;100889.15;;;12.65;100.00
45872;BME280;32333;55.844;-3.210;2022-07-10T00:26:53;100885.34;;;12.92;100.00
45872;BME280;32333;55.844;-3.210;2022-07-10T00:29:22;100878.66;;;12.94;100.00
45872;BME280;32333;55.844;-3.210;2022-07-10T00:31:49;100876.36;;;12.88;100.00
45872;BME280;32333;55.844;-3.210;2022-07-10T00:34:16;100874.57;;;13.06;100.00
45872;BME280;32333;55.844;-3.210;2022-07-10T00:36:43;100869.53;;;12.49;100.00
45872;BME280;32333;55.844;-3.210;2022-07-10T00:39:11;100867.31;;;13.08;100.00
45872;BME280;32333;55.844;-3.210;2022-07-10T00:41:38;100864.30;;;12.40;100.00
45872;BME280;32333;55.844;-3.210;2022-07-10T00:44:36;100859.00;;;12.65;100.00
45872;BME280;32333;55.844;-3.210;2022-07-10T00:47:05;100860.31;;;12.49;100.00
45872;BME280;32333;55.844;-3.210;2022-07-10T00:49:36;100860.94;;;13.07;100.00
45872;BME280;32333;55.844;-3.210;2022-07-10T00:52:06;100864.30;;;13.24;100.00
45872;BME280;32333;55.844;-3.210;2022-07-10T00:54:35;100859.72;;;13.67;100.00
45872;BME280;32333;55.844;-3.210;2022-07-10T00:57:04;100861.50;;;13.05;100.00
45872;BME280;32333;55.844;-3.210;2022-07-10T00:59:33;100859.48;;;13.74;100.00
45872;BME280;32333;55.844;-3.210;2022-07-10T01:02:01;100867.33;;;13.40;100.00
45872;BME280;32333;55.844;-3.210;2022-07-10T01:04:31;100868.80;;;13.20;100.00
45872;BME280;32333;55.844;-3.210;2022-07-10T01:06:59;100863.41;;;13.70;100.00
45872;BME280;32333;55.844;-3.210;2022-07-10T01:09:27;100865.53;;;13.30;100.00
45872;BME280;32333;55.844;-3.210;2022-07-10T01:11:55;100869.71;;;13.14;100.00
45872;BME280;32333;55.844;-3.210;2022-07-10T01:14:36;100860.12;;;13.54;100.00
45872;BME280;32333;55.844;-3.210;2022-07-10T01:17:04;100861.31;;;13.32;100.00
45872;BME280;32333;55.844;-3.210;2022-07-10T01:19:32;100861.02;;;13.56;100.00
45872;BME280;32333;55.844;-3.210;2022-07-10T01:21:59;100858.75;;;13.86;100.00
45872;BME280;32333;55.844;-3.210;2022-07-10T01:24:26;100853.13;;;13.47;100.00
45872;BME280;32333;55.844;-3.210;2022-07-10T01:26:54;100844.18;;;13.11;100.00
45872;BME280;32333;55.844;-3.210;2022-07-10T01:29:22;100849.44;;;13.40;100.00
45872;BME280;32333;55.844;-3.210;2022-07-10T01:31:50;100856.19;;;13.16;100.00
45872;BME280;32333;55.844;-3.210;2022-07-10T01:34:17;100854.43;;;13.10;100.00
45872;BME280;32333;55.844;-3.210;2022-07-10T01:36:45;100854.64;;;13.02;100.00
45872;BME280;32333;55.844;-3.210;2022-07-10T01:39:14;100845.28;;;13.42;100.00
45872;BME280;32333;55.844;-3.210;2022-07-10T01:41:41;100839.50;;;13.32;100.00
45872;BME280;32333;55.844;-3.210;2022-07-10T01:44:35;100839.18;;;12.74;100.00
45872;BME280;32333;55.844;-3.210;2022-07-10T01:47:02;100837.30;;;13.26;100.00
45872;BME280;32333;55.844;-3.210;2022-07-10T01:49:30;100840.94;;;13.66;100.00
45872;BME280;32333;55.844;-3.210;2022-07-10T01:51:58;100843.93;;;13.56;100.00
45872;BME280;32333;55.844;-3.210;2022-07-10T01:54:26;100840.66;;;13.28;100.00
45872;BME280;32333;55.844;-3.210;2022-07-10T01:56:53;100847.09;;;14.13;100.00
45872;BME280;32333;55.844;-3.210;2022-07-10T01:59:21;100845.00;;;13.66;100.00
45872;BME280;32333;55.844;-3.210;2022-07-10T02:01:48;100839.77;;;13.99;100.00
45872;BME280;32333;55.844;-3.210;2022-07-10T02:04:15;100842.45;;;13.83;100.00
45872;BME280;32333;55.844;-3.210;2022-07-10T02:06:43;100836.81;;;13.53;100.00
45872;BME280;32333;55.844;-3.210;2022-07-10T02:09:10;100838.62;;;13.56;100.00
45872;BME280;32333;55.844;-3.210;2022-07-10T02:11:37;100834.67;;;13.58;100.00
45872;BME280;32333;55.844;-3.210;2022-07-10T02:14:36;100834.84;;;13.69;100.00
45872;BME280;32333;55.844;-3.210;2022-07-10T02:17:04;100829.36;;;13.75;100.00
45872;BME280;32333;55.844;-3.210;2022-07-10T02:19:32;100832.05;;;13.33;100.00
45872;BME280;32333;55.844;-3.210;2022-07-10T02:22:00;100831.79;;;12.58;100.00
45872;BME280;32333;55.844;-3.210;2022-07-10T02:24:28;100833.26;;;13.87;100.00
45872;BME280;32333;55.844;-3.210;2022-07-10T02:26:55;100830.18;;;13.11;100.00
45872;BME280;32333;55.844;-3.210;2022-07-10T02:29:23;100831.49;;;13.11;100.00
45872;BME280;32333;55.844;-3.210;2022-07-10T02:31:50;100825.39;;;13.31;100.00
45872;BME280;32333;55.844;-3.210;2022-07-10T02:34:17;100830.63;;;12.96;100.00
45872;BME280;32333;55.844;-3.210;2022-07-10T02:36:45;100826.96;;;12.63;100.00
45872;BME280;32333;55.844;-3.210;2022-07-10T02:39:12;100822.55;;;12.99;100.00
45872;BME280;32333;55.844;-3.210;2022-07-10T02:41:40;100814.91;;;12.26;100.00
45872;BME280;32333;55.844;-3.210;2022-07-10T02:44:35;100809.71;;;13.72;100.00
45872;BME280;32333;55.844;-3.210;2022-07-10T02:47:03;100810.25;;;13.09;100.00
45872;BME280;32333;55.844;-3.210;2022-07-10T02:49:30;100811.64;;;13.47;100.00
45872;BME280;32333;55.844;-3.210;2022-07-10T02:51:59;100813.63;;;13.77;100.00
45872;BME280;32333;55.844;-3.210;2022-07-10T02:54:26;100809.29;;;12.97;100.00
45872;BME280;32333;55.844;-3.210;2022-07-10T02:56:53;100805.06;;;13.86;100.00
45872;BME280;32333;55.844;-3.210;2022-07-10T02:59:21;100805.75;;;12.91;100.00
45872;BME280;32333;55.844;-3.210;2022-07-10T03:01:48;100801.79;;;13.89;100.00
45872;BME280;32333;55.844;-3.210;2022-07-10T03:04:16;100798.98;;;13.26;100.00
45872;BME280;32333;55.844;-3.210;2022-07-10T03:06:43;100798.97;;;12.86;100.00
45872;BME280;32333;55.844;-3.210;2022-07-10T03:09:10;100798.94;;;12.88;100.00
45872;BME280;32333;55.844;-3.210;2022-07-10T03:11:37;100797.97;;;12.81;100.00
45872;BME280;32333;55.844;-3.210;2022-07-10T03:14:35;100800.03;;;13.47;100.00
45872;BME280;32333;55.844;-3.210;2022-07-10T03:17:02;100798.70;;;13.32;100.00
45872;BME280;32333;55.844;-3.210;2022-07-10T03:19:30;100797.18;;;13.87;100.00
45872;BME280;32333;55.844;-3.210;2022-07-10T03:21:59;100793.45;;;13.52;100.00
45872;BME280;32333;55.844;-3.210;2022-07-10T03:24:26;100785.73;;;13.45;100.00
45872;BME280;32333;55.844;-3.210;2022-07-10T03:26:53;100779.59;;;13.36;100.00
45872;BME280;32333;55.844;-3.210;2022-07-10T03:29:21;100774.64;;;12.95;100.00
45872;BME280;32333;55.844;-3.210;2022-07-10T03:31:48;100773.96;;;12.29;100.00
45872;BME280;32333;55.844;-3.210;2022-07-10T03:34:15;100774.57;;;13.21;100.00
45872;BME280;32333;55.844;-3.210;2022-07-10T03:36:43;100772.62;;;13.25;100.00
45872;BME280;32333;55.844;-3.210;2022-07-10T03:39:10;100772.72;;;13.08;100.00
45872;BME280;32333;55.844;-3.210;2022-07-10T03:41:37;100768.99;;;13.11;100.00
45872;BME280;32333;55.844;-3.210;2022-07-10T03:44:36;100763.00;;;12.81;100.00
45872;BME280;32333;55.844;-3.210;2022-07-10T03:47:03;100764.19;;;12.83;100.00
45872;BME280;32333;55.844;-3.210;2022-07-10T03:49:31;100761.06;;;13.19;100.00
45872;BME280;32333;55.844;-3.210;2022-07-10T03:52:00;100755.57;;;12.64;100.00
45872;BME280;32333;55.844;-3.210;2022-07-10T03:54:27;100757.51;;;13.03;100.00
45872;BME280;32333;55.844;-3.210;2022-07-10T03:56:55;100754.52;;;11.99;100.00
45872;BME280;32333;55.844;-3.210;2022-07-10T03:59:23;100756.22;;;12.53;100.00
45872;BME280;32333;55.844;-3.210;2022-07-10T04:01:50;100754.49;;;12.49;100.00
45872;BME280;32333;55.844;-3.210;2022-07-10T04:04:17;100749.97;;;12.45;100.00
45872;BME280;32333;55.844;-3.210;2022-07-10T04:06:45;100747.01;;;12.48;100.00
45872;BME280;32333;55.844;-3.210;2022-07-10T04:09:13;100749.06;;;12.79;100.00
45872;BME280;32333;55.844;-3.210;2022-07-10T04:11:40;100752.73;;;12.63;100.00
45872;BME280;32333;55.844;-3.210;2022-07-10T04:14:35;100749.88;;;12.57;100.00
45872;BME280;32333;55.844;-3.210;2022-07-10T04:17:03;100748.43;;;12.13;100.00
45872;BME280;32333;55.844;-3.210;2022-07-10T04:19:31;100748.84;;;12.31;100.00
45872;BME280;32333;55.844;-3.210;2022-07-10T04:21:59;100750.06;;;12.55;100.00
45872;BME280;32333;55.844;-3.210;2022-07-10T04:24:26;100748.77;;;12.78;100.00
45872;BME280;32333;55.844;-3.210;2022-07-10T04:26:53;100746.50;;;12.45;100.00
45872;BME280;32333;55.844;-3.210;2022-07-10T04:29:21;100748.03;;;12.44;100.00
45872;BME280;32333;55.844;-3.210;2022-07-10T04:31:48;100744.42;;;13.03;100.00
45872;BME280;32333;55.844;-3.210;2022-07-10T04:34:16;100748.60;;;12.53;100.00
45872;BME280;32333;55.844;-3.210;2022-07-10T04:36:43;100746.99;;;13.46;100.00
45872;BME280;32333;55.844;-3.210;2022-07-10T04:39:10;100746.26;;;14.34;100.00
45872;BME280;32333;55.844;-3.210;2022-07-10T04:41:37;100741.26;;;13.48;100.00
45872;BME280;32333;55.844;-3.210;2022-07-10T04:44:35;100753.33;;;14.33;100.00
45872;BME280;32333;55.844;-3.210;2022-07-10T04:47:04;100752.45;;;13.61;100.00
45872;BME280;32333;55.844;-3.210;2022-07-10T04:49:33;100750.65;;;13.99;100.00
45872;BME280;32333;55.844;-3.210;2022-07-10T04:52:02;100750.56;;;14.01;100.00
45872;BME280;32333;55.844;-3.210;2022-07-10T04:54:30;100751.37;;;14.14;100.00
45872;BME280;32333;55.844;-3.210;2022-07-10T04:56:58;100755.93;;;14.03;100.00
45872;BME280;32333;55.844;-3.210;2022-07-10T04:59:25;100758.21;;;14.04;100.00
45872;BME280;32333;55.844;-3.210;2022-07-10T05:01:53;100758.38;;;14.26;100.00
45872;BME280;32333;55.844;-3.210;2022-07-10T05:04:21;100759.33;;;14.36;100.00
45872;BME280;32333;55.844;-3.210;2022-07-10T05:06:48;100754.86;;;14.25;100.00
45872;BME280;32333;55.844;-3.210;2022-07-10T05:09:15;100754.37;;;13.96;100.00
45872;BME280;32333;55.844;-3.210;2022-07-10T05:11:43;100751.70;;;14.22;100.00
45872;BME280;32333;55.844;-3.210;2022-07-10T05:14:35;100739.49;;;13.67;100.00
45872;BME280;32333;55.844;-3.210;2022-07-10T05:17:02;100736.16;;;13.33;100.00
45872;BME280;32333;55.844;-3.210;2022-07-10T05:19:30;100726.52;;;14.13;100.00
45872;BME280;32333;55.844;-3.210;2022-07-10T05:21:58;100728.03;;;13.80;100.00
45872;BME280;32333;55.844;-3.210;2022-07-10T05:24:25;100724.87;;;14.64;100.00
45872;BME280;32333;55.844;-3.210;2022-07-10T05:26:52;100721.08;;;14.48;100.00
45872;BME280;32333;55.844;-3.210;2022-07-10T05:29:20;100715.24;;;14.99;100.00
45872;BME280;32333;55.844;-3.210;2022-07-10T05:31:48;100716.91;;;15.16;100.00
45872;BME280;32333;55.844;-3.210;2022-07-10T05:34:15;100708.46;;;14.93;100.00
45872;BME280;32333;55.844;-3.210;2022-07-10T05:36:42;100713.89;;;15.69;100.00
45872;BME280;32333;55.844;-3.210;2022-07-10T05:39:09;100714.00;;;15.49;100.00
45872;BME280;32333;55.844;-3.210;2022-07-10T05:41:37;100709.22;;;15.87;100.00
45872;BME280;32333;55.844;-3.210;2022-07-10T05:44:36;100711.44;;;15.63;100.00
45872;BME280;32333;55.844;-3.210;2022-07-10T05:47:03;100710.22;;;15.43;100.00
45872;BME280;32333;55.844;-3.210;2022-07-10T05:49:31;100712.15;;;14.31;100.00
45872;BME280;32333;55.844;-3.210;2022-07-10T05:51:59;100712.02;;;15.18;100.00
45872;BME280;32333;55.844;-3.210;2022-07-10T05:54:26;100713.23;;;15.35;100.00
45872;BME280;32333;55.844;-3.210;2022-07-10T05:56:54;100713.88;;;15.92;100.00
45872;BME280;32333;55.844;-3.210;2022-07-10T05:59:22;100715.26;;;15.36;100.00
45872;BME280;32333;55.844;-3.210;2022-07-10T06:01:49;100713.78;;;15.33;100.00
45872;BME280;32333;55.844;-3.210;2022-07-10T06:04:16;100710.25;;;15.07;100.00
45872;BME280;32333;55.844;-3.210;2022-07-10T06:06:44;100709.55;;;15.35;100.00
45872;BME280;32333;55.844;-3.210;2022-07-10T06:09:11;100720.65;;;14.41;100.00
45872;BME280;32333;55.844;-3.210;2022-07-10T06:11:38;100719.03;;;14.79;100.00
45872;BME280;32333;55.844;-3.210;2022-07-10T06:14:36;100721.44;;;14.78;100.00
45872;BME280;32333;55.844;-3.210;2022-07-10T06:17:03;100716.05;;;15.02;100.00
45872;BME280;32333;55.844;-3.210;2022-07-10T06:19:31;100714.93;;;14.15;100.00
45872;BME280;32333;55.844;-3.210;2022-07-10T06:21:59;100711.33;;;14.83;100.00
45872;BME280;32333;55.844;-3.210;2022-07-10T06:24:26;100711.45;;;15.98;100.00
45872;BME280;32333;55.844;-3.210;2022-07-10T06:26:53;100706.22;;;15.62;100.00
45872;BME280;32333;55.844;-3.210;2022-07-10T06:29:21;100704.21;;;15.08;100.00
45872;BME280;32333;55.844;-3.210;2022-07-10T06:31:48;100708.94;;;15.62;100.00
45872;BME280;32333;55.844;-3.210;2022-07-10T06:34:16;100713.13;;;15.48;100.00
45872;BME280;32333;55.844;-3.210;2022-07-10T06:36:43;100712.23;;;15.27;100.00
45872;BME280;32333;55.844;-3.210;2022-07-10T06:39:10;100715.48;;;15.31;100.00
45872;BME280;32333;55.844;-3.210;2022-07-10T06:41:37;100713.26;;;14.71;100.00
45872;BME280;32333;55.844;-3.210;2022-07-10T06:44:36;100714.13;;;15.75;100.00
45872;BME280;32333;55.844;-3.210;2022-07-10T06:47:03;100714.71;;;15.50;100.00
45872;BME280;32333;55.844;-3.210;2022-07-10T06:49:31;100710.28;;;15.54;100.00
45872;BME280;32333;55.844;-3.210;2022-07-10T06:51:59;100706.70;;;15.61;100.00
45872;BME280;32333;55.844;-3.210;2022-07-10T06:54:27;100709.53;;;15.59;100.00
45872;BME280;32333;55.844;-3.210;2022-07-10T06:56:54;100707.77;;;14.81;100.00
45872;BME280;32333;55.844;-3.210;2022-07-10T06:59:22;100704.70;;;14.99;100.00
45872;BME280;32333;55.844;-3.210;2022-07-10T07:01:50;100705.81;;;14.99;100.00
45872;BME280;32333;55.844;-3.210;2022-07-10T07:04:17;100706.35;;;14.92;100.00
45872;BME280;32333;55.844;-3.210;2022-07-10T07:06:46;100714.51;;;15.27;100.00
45872;BME280;32333;55.844;-3.210;2022-07-10T07:09:14;100712.24;;;14.57;100.00
45872;BME280;32333;55.844;-3.210;2022-07-10T07:11:41;100713.27;;;15.36;100.00
45872;BME280;32333;55.844;-3.210;2022-07-10T07:14:35;100708.69;;;15.66;100.00
45872;BME280;32333;55.844;-3.210;2022-07-10T07:17:04;100697.63;;;15.82;100.00
45872;BME280;32333;55.844;-3.210;2022-07-10T07:19:33;100702.45;;;16.60;100.00
45872;BME280;32333;55.844;-3.210;2022-07-10T07:22:00;100700.78;;;15.52;100.00
45872;BME280;32333;55.844;-3.210;2022-07-10T07:24:28;100701.11;;;15.74;100.00
45872;BME280;32333;55.844;-3.210;2022-07-10T07:26:55;100700.66;;;16.02;100.00
45872;BME280;32333;55.844;-3.210;2022-07-10T07:29:23;100698.15;;;15.20;100.00
45872;BME280;32333;55.844;-3.210;2022-07-10T07:31:51;100693.01;;;16.49;100.00
45872;BME280;32333;55.844;-3.210;2022-07-10T07:34:19;100685.96;;;16.85;100.00
45872;BME280;32333;55.844;-3.210;2022-07-10T07:36:47;100683.75;;;17.21;100.00
45872;BME280;32333;55.844;-3.210;2022-07-10T07:39:14;100681.00;;;16.67;100.00
45872;BME280;32333;55.844;-3.210;2022-07-10T07:41:42;100687.14;;;17.75;100.00
45872;BME280;32333;55.844;-3.210;2022-07-10T07:44:35;100689.08;;;17.28;100.00
45872;BME280;32333;55.844;-3.210;2022-07-10T07:47:03;100693.99;;;18.21;100.00
45872;BME280;32333;55.844;-3.210;2022-07-10T07:49:30;100698.88;;;18.20;100.00
45872;BME280;32333;55.844;-3.210;2022-07-10T07:51:58;100693.92;;;18.19;100.00
45872;BME280;32333;55.844;-3.210;2022-07-10T07:54:25;100691.92;;;18.39;100.00
45872;BME280;32333;55.844;-3.210;2022-07-10T07:56:52;100687.01;;;18.44;100.00
45872;BME280;32333;55.844;-3.210;2022-07-10T07:59:20;100676.91;;;19.62;100.00
45872;BME280;32333;55.844;-3.210;2022-07-10T08:01:47;100672.61;;;19.64;100.00
45872;BME280;32333;55.844;-3.210;2022-07-10T08:04:14;100664.79;;;18.36;100.00
45872;BME280;32333;55.844;-3.210;2022-07-10T08:06:42;100664.98;;;19.09;100.00
45872;BME280;32333;55.844;-3.210;2022-07-10T08:09:09;100665.41;;;20.20;100.00
45872;BME280;32333;55.844;-3.210;2022-07-10T08:11:37;100664.51;;;19.80;100.00
45872;BME280;32333;55.844;-3.210;2022-07-10T08:14:35;100667.62;;;21.84;100.00
45872;BME280;32333;55.844;-3.210;2022-07-10T08:17:03;100663.88;;;20.43;100.00
45872;BME280;32333;55.844;-3.210;2022-07-10T08:19:30;100670.43;;;21.33;100.00
45872;BME280;32333;55.844;-3.210;2022-07-10T08:21:58;100669.85;;;21.10;100.00
45872;BME280;32333;55.844;-3.210;2022-07-10T08:24:26;100664.60;;;21.76;100.00
45872;BME280;32333;55.844;-3.210;2022-07-10T08:26:53;100661.23;;;22.16;99.28
45872;BME280;32333;55.844;-3.210;2022-07-10T08:29:21;100661.10;;;22.01;99.06
45872;BME280;32333;55.844;-3.210;2022-07-10T08:31:48;100654.22;;;21.43;100.00
45872;BME280;32333;55.844;-3.210;2022-07-10T08:34:15;100654.21;;;22.30;96.40
45872;BME280;32333;55.844;-3.210;2022-07-10T08:36:44;100656.59;;;23.47;91.51
45872;BME280;32333;55.844;-3.210;2022-07-10T08:39:12;100657.23;;;22.92;92.92
45872;BME280;32333;55.844;-3.210;2022-07-10T08:41:39;100653.94;;;21.68;94.98
45872;BME280;32333;55.844;-3.210;2022-07-10T08:44:35;100648.54;;;23.55;91.41
45872;BME280;32333;55.844;-3.210;2022-07-10T08:47:03;100650.87;;;22.09;94.72
45872;BME280;32333;55.844;-3.210;2022-07-10T08:49:32;100641.79;;;22.93;89.51
45872;BME280;32333;55.844;-3.210;2022-07-10T08:52:03;100647.49;;;22.21;93.78
45872;BME280;32333;55.844;-3.210;2022-07-10T08:54:33;100643.98;;;22.21;92.40
45872;BME280;32333;55.844;-3.210;2022-07-10T08:57:02;100637.19;;;22.41;95.09
45872;BME280;32333;55.844;-3.210;2022-07-10T08:59:31;100635.28;;;22.79;91.53
45872;BME280;32333;55.844;-3.210;2022-07-10T09:01:59;100630.76;;;22.57;92.03
45872;BME280;32333;55.844;-3.210;2022-07-10T09:04:28;100628.07;;;23.30;89.06
45872;BME280;32333;55.844;-3.210;2022-07-10T09:06:55;100633.29;;;22.67;92.08
45872;BME280;32333;55.844;-3.210;2022-07-10T09:09:24;100623.41;;;24.17;84.43
45872;BME280;32333;55.844;-3.210;2022-07-10T09:11:57;100623.58;;;24.36;81.25
45872;BME280;32333;55.844;-3.210;2022-07-10T09:14:35;100619.88;;;23.63;82.00
45872;BME280;32333;55.844;-3.210;2022-07-10T09:17:05;100620.64;;;24.40;78.06
45872;BME280;32333;55.844;-3.210;2022-07-10T09:19:34;100619.30;;;23.48;78.80
45872;BME280;32333;55.844;-3.210;2022-07-10T09:22:05;100619.42;;;22.95;77.42
45872;BME280;32333;55.844;-3.210;2022-07-10T09:24:36;100618.70;;;24.08;77.58
45872;BME280;32333;55.844;-3.210;2022-07-10T09:27:06;100616.96;;;23.50;75.92
45872;BME280;32333;55.844;-3.210;2022-07-10T09:29:45;100613.38;;;23.89;76.79
45872;BME280;32333;55.844;-3.210;2022-07-10T09:32:15;100615.74;;;24.45;77.94
45872;BME280;32333;55.844;-3.210;2022-07-10T09:34:44;100612.17;;;24.42;71.15
45872;BME280;32333;55.844;-3.210;2022-07-10T09:37:22;100608.80;;;24.92;69.36
45872;BME280;32333;55.844;-3.210;2022-07-10T09:39:53;100603.98;;;25.57;67.10
45872;BME280;32333;55.844;-3.210;2022-07-10T09:44:35;100595.45;;;25.54;68.63
45872;BME280;32333;55.844;-3.210;2022-07-10T09:47:03;100597.40;;;25.23;67.79
45872;BME280;32333;55.844;-3.210;2022-07-10T09:49:32;100595.05;;;25.56;64.50
45872;BME280;32333;55.844;-3.210;2022-07-10T09:51:59;100597.69;;;24.94;66.72
45872;BME280;32333;55.844;-3.210;2022-07-10T09:54:27;100592.58;;;24.48;66.45
45872;BME280;32333;55.844;-3.210;2022-07-10T09:56:55;100595.07;;;25.28;64.18
45872;BME280;32333;55.844;-3.210;2022-07-10T09:59:24;100588.85;;;26.13;61.80
45872;BME280;32333;55.844;-3.210;2022-07-10T10:01:53;100592.54;;;25.69;63.60
45872;BME280;32333;55.844;-3.210;2022-07-10T10:04:22;100591.77;;;27.05;58.48
45872;BME280;32333;55.844;-3.210;2022-07-10T10:06:52;100592.70;;;26.31;60.59
45872;BME280;32333;55.844;-3.210;2022-07-10T10:09:23;100581.49;;;27.13;60.45
45872;BME280;32333;55.844;-3.210;2022-07-10T10:11:57;100576.03;;;27.65;56.24
45872;BME280;32333;55.844;-3.210;2022-07-10T10:14:35;100577.28;;;28.04;55.25
45872;BME280;32333;55.844;-3.210;2022-07-10T10:17:05;100577.31;;;27.90;55.50
45872;BME280;32333;55.844;-3.210;2022-07-10T10:19:36;100573.90;;;26.44;54.82
45872;BME280;32333;55.844;-3.210;2022-07-10T10:22:07;100577.90;;;26.22;59.27
45872;BME280;32333;55.844;-3.210;2022-07-10T10:24:36;100570.76;;;26.53;55.97
45872;BME280;32333;55.844;-3.210;2022-07-10T10:27:05;100568.04;;;27.45;55.71
45872;BME280;32333;55.844;-3.210;2022-07-10T10:29:35;100575.19;;;26.53;55.48
45872;BME280;32333;55.844;-3.210;2022-07-10T10:32:04;100570.36;;;27.99;54.28
45872;BME280;32333;55.844;-3.210;2022-07-10T10:34:41;100576.14;;;27.76;53.29
45872;BME280;32333;55.844;-3.210;2022-07-10T10:37:34;100571.05;;;28.27;53.32
45872;BME280;32333;55.844;-3.210;2022-07-10T10:40:02;100566.13;;;27.56;55.61
45872;BME280;32333;55.844;-3.210;2022-07-10T10:44:35;100568.96;;;25.56;61.56
45872;BME280;32333;55.844;-3.210;2022-07-10T10:47:05;100560.46;;;26.96;55.90
45872;BME280;32333;55.844;-3.210;2022-07-10T10:50:06;100571.82;;;26.57;59.33
45872;BME280;32333;55.844;-3.210;2022-07-10T10:52:33;100561.17;;;27.56;56.43
45872;BME280;32333;55.844;-3.210;2022-07-10T10:55:03;100557.61;;;26.91;56.05
45872;BME280;32333;55.844;-3.210;2022-07-10T10:57:37;100552.65;;;27.42;55.71
45872;BME280;32333;55.844;-3.210;2022-07-10T11:00:06;100550.73;;;26.86;55.61
45872;BME280;32333;55.844;-3.210;2022-07-10T11:02:35;100547.66;;;27.60;55.45
45872;BME280;32333;55.844;-3.210;2022-07-10T11:05:39;100546.59;;;27.21;55.54
45872;BME280;32333;55.844;-3.210;2022-07-10T11:08:08;100543.56;;;26.56;56.57
45872;BME280;32333;55.844;-3.210;2022-07-10T11:10:38;100539.93;;;27.74;50.58
45872;BME280;32333;55.844;-3.210;2022-07-10T11:14:36;100539.80;;;27.84;52.28
45872;BME280;32333;55.844;-3.210;2022-07-10T11:17:04;100536.64;;;29.11;49.10
45872;BME280;32333;55.844;-3.210;2022-07-10T11:19:34;100532.61;;;28.04;50.86
45872;BME280;32333;55.844;-3.210;2022-07-10T11:22:28;100530.28;;;28.08;50.36
45872;BME280;32333;55.844;-3.210;2022-07-10T11:25:19;100531.01;;;28.03;52.04
45872;BME280;32333;55.844;-3.210;2022-07-10T11:28:03;100527.02;;;28.29;49.39
45872;BME280;32333;55.844;-3.210;2022-07-10T11:30:43;100524.66;;;29.29;48.30
45872;BME280;32333;55.844;-3.210;2022-07-10T11:33:11;100524.33;;;27.96;51.27
45872;BME280;32333;55.844;-3.210;2022-07-10T11:35:39;100520.88;;;28.20;49.88
45872;BME280;32333;55.844;-3.210;2022-07-10T11:38:06;100522.11;;;27.85;48.41
45872;BME280;32333;55.844;-3.210;2022-07-10T11:40:36;100519.24;;;27.82;48.54
45872;BME280;32333;55.844;-3.210;2022-07-10T11:44:35;100519.93;;;28.07;46.44
45872;BME280;32333;55.844;-3.210;2022-07-10T11:47:04;100516.48;;;28.86;46.79
45872;BME280;32333;55.844;-3.210;2022-07-10T11:49:33;100511.20;;;28.04;43.86
45872;BME280;32333;55.844;-3.210;2022-07-10T11:52:03;100512.43;;;28.44;46.33
45872;BME280;32333;55.844;-3.210;2022-07-10T11:54:31;100516.37;;;29.64;42.79
45872;BME280;32333;55.844;-3.210;2022-07-10T11:57:05;100513.79;;;28.80;44.36
45872;BME280;32333;55.844;-3.210;2022-07-10T11:59:33;100512.03;;;29.14;45.87
45872;BME280;32333;55.844;-3.210;2022-07-10T12:02:01;100512.78;;;28.05;44.37
45872;BME280;32333;55.844;-3.210;2022-07-10T12:04:30;100505.69;;;28.22;45.53
45872;BME280;32333;55.844;-3.210;2022-07-10T12:06:57;100502.69;;;28.09;48.30
45872;BME280;32333;55.844;-3.210;2022-07-10T12:09:25;100499.69;;;27.54;47.48
45872;BME280;32333;55.844;-3.210;2022-07-10T12:12:01;100495.28;;;26.98;49.06
45872;BME280;32333;55.844;-3.210;2022-07-10T12:14:36;100491.49;;;27.39;49.11
45872;BME280;32333;55.844;-3.210;2022-07-10T12:17:13;100493.46;;;27.04;49.00
45872;BME280;32333;55.844;-3.210;2022-07-10T12:19:41;100487.24;;;26.80;48.05
45872;BME280;32333;55.844;-3.210;2022-07-10T12:22:10;100489.42;;;27.29;50.03
45872;BME280;32333;55.844;-3.210;2022-07-10T12:24:37;100486.42;;;26.88;51.76
45872;BME280;32333;55.844;-3.210;2022-07-10T12:27:06;100486.43;;;27.81;49.76
45872;BME280;32333;55.844;-3.210;2022-07-10T12:30:00;100482.65;;;28.07;47.76
45872;BME280;32333;55.844;-3.210;2022-07-10T12:32:27;100484.19;;;27.88;47.16
45872;BME280;32333;55.844;-3.210;2022-07-10T12:34:58;100483.85;;;27.19;48.55
45872;BME280;32333;55.844;-3.210;2022-07-10T12:37:26;100483.07;;;26.13;52.38
45872;BME280;32333;55.844;-3.210;2022-07-10T12:39:53;100482.85;;;26.57;50.69
45872;BME280;32333;55.844;-3.210;2022-07-10T12:44:50;100474.64;;;27.06;49.73
45872;BME280;32333;55.844;-3.210;2022-07-10T12:47:19;100475.51;;;27.58;49.35
45872;BME280;32333;55.844;-3.210;2022-07-10T12:49:49;100477.35;;;27.28;49.28
45872;BME280;32333;55.844;-3.210;2022-07-10T12:52:21;100480.06;;;27.41;49.23
45872;BME280;32333;55.844;-3.210;2022-07-10T12:55:04;100475.26;;;27.76;48.36
45872;BME280;32333;55.844;-3.210;2022-07-10T12:57:32;100479.13;;;25.93;52.30
45872;BME280;32333;55.844;-3.210;2022-07-10T13:00:04;100475.44;;;26.98;51.35